Time;durP1;ratioP1;P1;durP2;ratioP2;P2;SDS_P1;SDS_P2;PMS_P1;PMS_P2;Temp;Humidity;BMP_temperature;BMP_pressure;BME280_temperature;BME280_humidity;BME280_pressure;Samples;Min_cycle;Max_cycle;Signal;HPM_P1;HPM_P2
2022/03/25 00:01:25;;;;;;;;;;;9.40;99.90;;;;;;5116166;28;19924;-89
2022/03/25 00:03:52;;;;;;;;;;;9.20;99.90;;;;;;5115985;28;19923;-89
2022/03/25 00:06:19;;;;;;;;;;;9.30;99.90;;;;;;5116348;28;19969;-89
2022/03/25 00:08:46;;;;;;;;;;;9.70;99.90;;;;;;5106041;28;19924;-89
2022/03/25 00:11:14;;;;;;;;;;;9.60;99.90;;;;;;5095714;28;19924;-89
2022/03/25 00:13:44;;;;;;;;;;;9.60;99.90;;;;;;5095685;28;19934;-91
2022/03/25 00:16:11;;;;;;;;;;;9.20;99.90;;;;;;5095762;28;19932;-90
2022/03/25 00:18:38;;;;;;;;;;;9.10;99.90;;;;;;5095112;28;20023;-87
2022/03/25 00:21:05;;;;;;;;;;;9.00;99.90;;;;;;5095347;28;19924;-90
2022/03/25 00:23:32;;;;;;;;;;;9.10;99.90;;;;;;5095957;28;20011;-90
2022/03/25 00:25:58;;;;;;;;;;;9.20;99.90;;;;;;5095025;28;19931;-89
2022/03/25 00:28:27;;;;;;;;;;;9.30;99.90;;;;;;5095313;28;19924;-90
2022/03/25 00:30:54;;;;;;;;;;;9.30;99.90;;;;;;5094880;28;19935;-91
2022/03/25 00:33:20;;;;;;;;;;;9.20;99.90;;;;;;5095250;28;19924;-91
2022/03/25 00:35:48;;;;;;;;;;;9.10;99.90;;;;;;5094971;28;19966;-91
2022/03/25 00:38:14;;;;;;;;;;;9.10;99.90;;;;;;5095133;28;19927;-89
2022/03/25 00:40:41;;;;;;;;;;;9.00;99.90;;;;;;5095023;28;19928;-90
2022/03/25 00:43:09;;;;;;;;;;;9.20;99.90;;;;;;5094895;28;19925;-91
2022/03/25 00:45:38;;;;;;;;;;;7.00;99.90;;;;;;5094885;28;19971;-89
2022/03/25 00:48:05;;;;;;;;;;;9.50;99.90;;;;;;5095267;28;19924;-91
2022/03/25 00:50:32;;;;;;;;;;;9.00;99.90;;;;;;5095606;28;19963;-90
2022/03/25 00:52:59;;;;;;;;;;;9.00;99.90;;;;;;5095698;28;19924;-91
2022/03/25 00:55:26;;;;;;;;;;;9.20;99.90;;;;;;5095348;28;19924;-91
2022/03/25 00:57:53;;;;;;;;;;;9.10;99.90;;;;;;5095058;28;20331;-90
2022/03/25 01:00:21;;;;;;;;;;;9.00;99.90;;;;;;5095084;28;19932;-90
2022/03/25 01:02:49;;;;;;;;;;;8.90;99.90;;;;;;5094802;28;19924;-90
2022/03/25 01:05:17;;;;;;;;;;;8.90;99.90;;;;;;5094903;28;19926;-91
2022/03/25 01:07:44;;;;;;;;;;;8.80;99.90;;;;;;5096407;28;19928;-90
2022/03/25 01:10:13;;;;;;;;;;;8.70;99.90;;;;;;5116262;28;19924;-90
2022/03/25 01:12:40;;;;;;;;;;;8.80;99.90;;;;;;5127827;28;19930;-87
2022/03/25 01:15:07;;;;;;;;;;;8.80;99.90;;;;;;5131722;28;19924;-87
2022/03/25 01:17:34;;;;;;;;;;;8.70;99.90;;;;;;5133141;28;19935;-89
2022/03/25 01:20:02;;;;;;;;;;;8.90;99.90;;;;;;5128859;28;20014;-90
2022/03/25 01:22:29;;;;;;;;;;;8.60;99.90;;;;;;5118465;28;19924;-90
2022/03/25 01:24:56;;;;;;;;;;;6.90;99.90;;;;;;5115658;28;19924;-90
2022/03/25 01:27:23;;;;;;;;;;;8.60;99.90;;;;;;5115341;28;19924;-90
2022/03/25 01:29:50;;;;;;;;;;;8.50;99.90;;;;;;5114840;28;20381;-88
2022/03/25 01:32:17;;;;;;;;;;;8.50;99.90;;;;;;5115056;28;19927;-89
2022/03/25 01:34:44;;;;;;;;;;;8.30;99.90;;;;;;5114784;28;19923;-90
2022/03/25 01:37:12;;;;;;;;;;;10.40;99.90;;;;;;5115230;28;19927;-90
2022/03/25 01:39:39;;;;;;;;;;;8.70;99.90;;;;;;5118123;28;19924;-89
2022/03/25 01:42:06;;;;;;;;;;;8.50;99.90;;;;;;5118567;28;19931;-91
2022/03/25 01:44:33;;;;;;;;;;;8.40;99.90;;;;;;5118335;28;19923;-91
2022/03/25 01:47:00;;;;;;;;;;;8.30;99.90;;;;;;5118409;28;20021;-90
2022/03/25 01:49:30;;;;;;;;;;;8.20;99.90;;;;;;5118918;28;19928;-90
2022/03/25 01:51:59;;;;;;;;;;;8.10;99.90;;;;;;5118518;28;19955;-90
2022/03/25 01:54:28;;;;;;;;;;;8.00;99.90;;;;;;5118239;28;19930;-90
2022/03/25 01:56:56;;;;;;;;;;;7.10;99.90;;;;;;5118458;28;19939;-89
2022/03/25 01:59:23;;;;;;;;;;;8.30;99.90;;;;;;5118128;28;19931;-90
2022/03/25 02:01:51;;;;;;;;;;;7.40;99.90;;;;;;5118122;28;19935;-90
2022/03/25 02:04:18;;;;;;;;;;;7.90;99.90;;;;;;5118231;28;19931;-89
2022/03/25 02:06:45;;;;;;;;;;;8.10;99.90;;;;;;5118528;28;19923;-89
2022/03/25 02:09:12;;;;;;;;;;;7.10;99.90;;;;;;5103962;28;20401;-90
2022/03/25 02:11:40;;;;;;;;;;;7.90;99.90;;;;;;5097487;28;20007;-90
2022/03/25 02:14:07;;;;;;;;;;;8.00;99.90;;;;;;5097557;28;19928;-91
2022/03/25 02:16:35;;;;;;;;;;;7.40;99.90;;;;;;5097814;28;19924;-90
2022/03/25 02:19:01;;;;;;;;;;;8.00;99.90;;;;;;5097645;28;19924;-90
2022/03/25 02:21:30;;;;;;;;;;;7.90;99.90;;;;;;5097598;28;19932;-89
2022/03/25 02:23:57;;;;;;;;;;;7.50;99.90;;;;;;5097101;28;19981;-90
2022/03/25 02:26:24;;;;;;;;;;;7.70;99.90;;;;;;5097253;28;19924;-90
2022/03/25 02:28:51;;;;;;;;;;;7.70;99.90;;;;;;5097364;28;20358;-90
2022/03/25 02:31:18;;;;;;;;;;;8.00;99.90;;;;;;5097071;28;19946;-91
2022/03/25 02:33:45;;;;;;;;;;;7.80;99.90;;;;;;5097369;28;20023;-90
2022/03/25 02:36:12;;;;;;;;;;;7.90;99.90;;;;;;5097481;28;20227;-91
2022/03/25 02:38:43;;;;;;;;;;;8.80;99.90;;;;;;5097071;28;19924;-90
2022/03/25 02:41:10;;;;;;;;;;;6.70;99.90;;;;;;5097274;28;19929;-91
2022/03/25 02:43:37;;;;;;;;;;;7.70;99.90;;;;;;5097436;28;19924;-90
2022/03/25 02:46:04;;;;;;;;;;;7.80;99.90;;;;;;5097452;28;19931;-90
2022/03/25 02:48:30;;;;;;;;;;;7.60;99.90;;;;;;5096897;28;20389;-89
2022/03/25 02:50:57;;;;;;;;;;;7.60;99.90;;;;;;5096743;28;19932;-90
2022/03/25 02:53:24;;;;;;;;;;;7.60;99.90;;;;;;5096996;28;19970;-90
2022/03/25 02:55:52;;;;;;;;;;;7.60;99.90;;;;;;5096746;28;20378;-89
2022/03/25 02:58:20;;;;;;;;;;;7.70;99.90;;;;;;5096451;28;19939;-90
2022/03/25 03:00:47;;;;;;;;;;;8.20;99.90;;;;;;5096656;28;19932;-90
2022/03/25 03:03:14;;;;;;;;;;;7.80;99.90;;;;;;5096000;28;19927;-90
2022/03/25 03:05:40;;;;;;;;;;;7.60;99.90;;;;;;5096092;28;19928;-90
2022/03/25 03:08:07;;;;;;;;;;;6.80;99.90;;;;;;5101196;28;19924;-89
2022/03/25 03:10:34;;;;;;;;;;;7.20;99.90;;;;;;5117153;28;19923;-90
2022/03/25 03:13:04;;;;;;;;;;;7.20;99.90;;;;;;5117097;28;19924;-89
2022/03/25 03:15:31;;;;;;;;;;;7.10;99.90;;;;;;5119999;28;19930;-90
2022/03/25 03:17:58;;;;;;;;;;;7.00;99.90;;;;;;5134218;28;19927;-89
2022/03/25 03:20:26;;;;;;;;;;;7.00;99.90;;;;;;5134558;28;19924;-88
2022/03/25 03:22:53;;;;;;;;;;;7.00;99.90;;;;;;5134864;28;19963;-89
2022/03/25 03:25:20;;;;;;;;;;;5.40;99.90;;;;;;5124554;28;19927;-91
2022/03/25 03:27:47;;;;;;;;;;;6.90;99.90;;;;;;5118388;28;19923;-90
2022/03/25 03:30:15;;;;;;;;;;;6.80;99.90;;;;;;5122003;27;19923;-88
2022/03/25 03:32:42;;;;;;;;;;;6.90;99.90;;;;;;5104442;28;20336;-92
2022/03/25 03:35:09;;;;;;;;;;;7.00;99.90;;;;;;5095991;28;20409;-90
2022/03/25 03:37:43;;;;;;;;;;;6.40;99.90;;;;;;5096147;28;19989;-90
2022/03/25 03:40:10;;;;;;;;;;;7.10;99.90;;;;;;5107211;28;19977;-89
2022/03/25 03:42:37;;;;;;;;;;;7.30;99.90;;;;;;5115871;28;19928;-90
2022/03/25 03:45:08;;;;;;;;;;;7.10;99.90;;;;;;5115743;28;19968;-89
2022/03/25 03:47:36;;;;;;;;;;;7.10;99.90;;;;;;5114039;28;19963;-91
2022/03/25 03:50:04;;;;;;;;;;;7.10;99.90;;;;;;5095542;28;20366;-89
2022/03/25 03:52:31;;;;;;;;;;;7.00;99.90;;;;;;5095596;28;20389;-90
2022/03/25 03:54:58;;;;;;;;;;;7.00;99.90;;;;;;5095481;28;19924;-90
2022/03/25 03:57:25;;;;;;;;;;;6.30;99.90;;;;;;5095482;28;19924;-90
2022/03/25 03:59:52;;;;;;;;;;;6.90;99.90;;;;;;5095344;28;19928;-89
2022/03/25 04:02:19;;;;;;;;;;;6.80;99.90;;;;;;5094581;28;20382;-90
2022/03/25 04:04:47;;;;;;;;;;;6.70;99.90;;;;;;5098288;28;19952;-89
2022/03/25 04:07:15;;;;;;;;;;;6.70;99.90;;;;;;5115995;28;19924;-90
2022/03/25 04:09:41;;;;;;;;;;;7.40;99.90;;;;;;5115780;28;19928;-88
2022/03/25 04:12:09;;;;;;;;;;;6.70;99.90;;;;;;5115566;28;19931;-90
2022/03/25 04:14:36;;;;;;;;;;;6.70;99.90;;;;;;5115247;28;19932;-90
2022/03/25 04:17:03;;;;;;;;;;;6.60;99.90;;;;;;5115223;28;19928;-90
2022/03/25 04:19:30;;;;;;;;;;;6.60;99.90;;;;;;5115847;28;19973;-90
2022/03/25 04:21:58;;;;;;;;;;;6.60;99.90;;;;;;5115359;28;19965;-91
2022/03/25 04:24:25;;;;;;;;;;;6.70;99.90;;;;;;5114969;28;19976;-86
2022/03/25 04:26:52;;;;;;;;;;;6.20;99.90;;;;;;5115190;28;19935;-90
2022/03/25 04:29:19;;;;;;;;;;;6.80;99.90;;;;;;5115250;28;20339;-90
2022/03/25 04:31:45;;;;;;;;;;;6.70;99.90;;;;;;5115447;28;19959;-89
2022/03/25 04:34:12;;;;;;;;;;;6.30;99.90;;;;;;5114968;28;19923;-89
2022/03/25 04:36:39;;;;;;;;;;;7.10;99.90;;;;;;5115098;28;19973;-88
2022/03/25 04:39:07;;;;;;;;;;;6.60;99.90;;;;;;5110508;28;19938;-89
2022/03/25 04:41:34;;;;;;;;;;;6.50;99.90;;;;;;5094992;28;19924;-88
2022/03/25 04:44:01;;;;;;;;;;;6.50;99.90;;;;;;5094285;28;19996;-88
2022/03/25 04:46:28;;;;;;;;;;;6.40;99.90;;;;;;5094777;28;19931;-90
2022/03/25 04:48:54;;;;;;;;;;;6.60;99.90;;;;;;5094785;28;20334;-89
2022/03/25 04:51:21;;;;;;;;;;;6.40;99.90;;;;;;5094420;28;19928;-89
2022/03/25 04:53:49;;;;;;;;;;;6.70;99.90;;;;;;5094565;28;19977;-90
2022/03/25 04:56:17;;;;;;;;;;;6.40;99.90;;;;;;5094451;28;19924;-89
2022/03/25 04:58:43;;;;;;;;;;;6.60;99.90;;;;;;5094403;28;19924;-91
2022/03/25 05:01:10;;;;;;;;;;;6.80;99.90;;;;;;5094647;28;19931;-89
2022/03/25 05:03:37;;;;;;;;;;;7.70;99.90;;;;;;5094326;28;19982;-90
2022/03/25 05:06:05;;;;;;;;;;;6.80;99.90;;;;;;5094305;28;19924;-91
2022/03/25 05:08:32;;;;;;;;;;;6.60;99.90;;;;;;5094607;28;19925;-90
2022/03/25 05:10:59;;;;;;;;;;;6.30;99.90;;;;;;5094244;28;19923;-89
2022/03/25 05:13:27;;;;;;;;;;;6.30;99.90;;;;;;5095525;28;19970;-89
2022/03/25 05:15:54;;;;;;;;;;;6.40;99.90;;;;;;5098100;28;19924;-90
2022/03/25 05:18:22;;;;;;;;;;;6.20;99.90;;;;;;5098589;28;19931;-89
2022/03/25 05:20:50;;;;;;;;;;;6.20;99.90;;;;;;5099237;28;19924;-89
2022/03/25 05:23:17;;;;;;;;;;;6.50;99.90;;;;;;5113287;28;19970;-89
2022/03/25 05:25:43;;;;;;;;;;;6.60;99.90;;;;;;5117360;28;19924;-88
2022/03/25 05:28:10;;;;;;;;;;;6.20;99.90;;;;;;5118218;28;19946;-89
2022/03/25 05:30:39;;;;;;;;;;;6.30;99.90;;;;;;5112748;28;20443;-89
2022/03/25 05:33:05;;;;;;;;;;;6.00;99.90;;;;;;5101104;28;19927;-91
2022/03/25 05:35:32;;;;;;;;;;;6.00;99.90;;;;;;5099235;28;19931;-88
2022/03/25 05:37:59;;;;;;;;;;;6.40;99.90;;;;;;5098904;28;19928;-89
2022/03/25 05:40:26;;;;;;;;;;;5.70;99.90;;;;;;5098774;28;19924;-88
2022/03/25 05:42:53;;;;;;;;;;;5.90;99.90;;;;;;5097934;28;19924;-88
2022/03/25 05:45:21;;;;;;;;;;;5.90;99.90;;;;;;5098347;28;20013;-89
2022/03/25 05:47:50;;;;;;;;;;;5.90;99.90;;;;;;5097444;28;19932;-90
2022/03/25 05:50:17;;;;;;;;;;;5.80;99.90;;;;;;5098170;28;19998;-89
2022/03/25 05:52:44;;;;;;;;;;;5.80;99.90;;;;;;5097537;28;20036;-90
2022/03/25 05:55:12;;;;;;;;;;;4.40;99.90;;;;;;5097841;28;19928;-89
2022/03/25 05:57:39;;;;;;;;;;;6.20;99.90;;;;;;5097667;28;19924;-89
2022/03/25 06:00:08;;;;;;;;;;;5.90;99.90;;;;;;5097679;28;20315;-90
2022/03/25 06:02:35;;;;;;;;;;;5.80;99.90;;;;;;5097399;28;19925;-88
2022/03/25 06:05:04;;;;;;;;;;;6.10;99.90;;;;;;5097471;28;19928;-89
2022/03/25 06:07:35;;;;;;;;;;;6.20;99.90;;;;;;5097274;28;19924;-90
2022/03/25 06:10:02;;;;;;;;;;;5.00;99.90;;;;;;5097539;28;19928;-88
2022/03/25 06:12:29;;;;;;;;;;;5.90;99.90;;;;;;5097212;28;19928;-90
2022/03/25 06:14:56;;;;;;;;;;;7.30;99.90;;;;;;5097529;28;19928;-89
2022/03/25 06:17:23;;;;;;;;;;;6.20;99.90;;;;;;5097228;28;19924;-89
2022/03/25 06:19:49;;;;;;;;;;;6.20;99.90;;;;;;5097056;28;19969;-89
2022/03/25 06:22:18;;;;;;;;;;;5.80;99.90;;;;;;5096803;28;20472;-89
2022/03/25 06:24:45;;;;;;;;;;;6.10;99.90;;;;;;5095998;28;20297;-90
2022/03/25 06:27:11;;;;;;;;;;;6.30;99.90;;;;;;5097006;28;19936;-89
2022/03/25 06:29:39;;;;;;;;;;;6.00;99.90;;;;;;5096916;28;20368;-89
2022/03/25 06:32:07;;;;;;;;;;;5.50;99.90;;;;;;5096576;28;19924;-89
2022/03/25 06:34:34;;;;;;;;;;;6.10;99.90;;;;;;5097143;28;19924;-88
2022/03/25 06:37:01;;;;;;;;;;;6.40;99.90;;;;;;5096973;28;19946;-89
2022/03/25 06:39:30;;;;;;;;;;;4.40;99.90;;;;;;5096557;28;19973;-89
2022/03/25 06:41:57;;;;;;;;;;;6.60;99.90;;;;;;5096228;28;19924;-90
2022/03/25 06:44:24;;;;;;;;;;;6.50;99.90;;;;;;5096794;28;20012;-91
2022/03/25 06:46:51;;;;;;;;;;;6.00;99.90;;;;;;5096166;28;19932;-90
2022/03/25 06:49:18;;;;;;;;;;;6.50;99.90;;;;;;5096617;28;19985;-89
2022/03/25 06:51:45;;;;;;;;;;;6.50;99.90;;;;;;5096498;28;19969;-91
2022/03/25 06:54:12;;;;;;;;;;;6.50;99.90;;;;;;5096160;28;19932;-89
2022/03/25 06:56:40;;;;;;;;;;;6.60;99.90;;;;;;5096082;28;19924;-90
2022/03/25 06:59:08;;;;;;;;;;;6.70;99.90;;;;;;5096182;28;19924;-89
2022/03/25 07:01:35;;;;;;;;;;;6.50;99.90;;;;;;5096618;28;19971;-90
2022/03/25 07:04:03;;;;;;;;;;;6.80;99.90;;;;;;5096088;28;19927;-91
2022/03/25 07:06:31;;;;;;;;;;;6.80;99.90;;;;;;5096123;28;19993;-90
2022/03/25 07:08:58;;;;;;;;;;;6.90;99.90;;;;;;5096963;28;19932;-91
2022/03/25 07:11:25;;;;;;;;;;;7.40;99.90;;;;;;5096216;28;19924;-90
2022/03/25 07:13:54;;;;;;;;;;;7.60;99.90;;;;;;5096095;28;19928;-90
2022/03/25 07:16:23;;;;;;;;;;;7.60;99.90;;;;;;5096304;28;19931;-89
2022/03/25 07:18:50;;;;;;;;;;;7.30;99.90;;;;;;5096327;28;20321;-90
2022/03/25 07:21:17;;;;;;;;;;;7.50;99.90;;;;;;5096212;28;19924;-92
2022/03/25 07:23:44;;;;;;;;;;;7.50;99.90;;;;;;5095614;28;19970;-91
2022/03/25 07:26:11;;;;;;;;;;;8.00;99.90;;;;;;5097633;28;19960;-89
2022/03/25 07:28:38;;;;;;;;;;;7.80;99.90;;;;;;5096742;28;20345;-90
2022/03/25 07:31:06;;;;;;;;;;;7.70;99.90;;;;;;5108651;28;19924;-90
2022/03/25 07:33:37;;;;;;;;;;;8.10;99.90;;;;;;5110042;28;19925;-89
2022/03/25 07:36:04;;;;;;;;;;;8.00;99.90;;;;;;5107591;28;19924;-88
2022/03/25 07:38:31;;;;;;;;;;;8.70;99.90;;;;;;5105158;28;19924;-90
2022/03/25 07:40:58;;;;;;;;;;;8.20;99.90;;;;;;5118555;28;19936;-89
2022/03/25 07:43:25;;;;;;;;;;;8.30;99.90;;;;;;5116708;28;19923;-90
2022/03/25 07:45:52;;;;;;;;;;;8.60;99.90;;;;;;5117922;28;20395;-88
2022/03/25 07:48:20;;;;;;;;;;;9.20;99.90;;;;;;5122220;28;19924;-90
2022/03/25 07:50:47;;;;;;;;;;;11.20;99.90;;;;;;5112904;28;20019;-89
2022/03/25 07:53:14;;;;;;;;;;;11.00;99.90;;;;;;5106993;28;19954;-90
2022/03/25 07:55:42;;;;;;;;;;;9.20;99.90;;;;;;5101928;28;20450;-89
2022/03/25 07:58:10;;;;;;;;;;;6.80;99.90;;;;;;5117913;28;20393;-90
2022/03/25 08:00:38;;;;;;;;;;;9.00;99.90;;;;;;5120107;28;19968;-90
2022/03/25 08:03:06;;;;;;;;;;;9.10;99.90;;;;;;5119260;28;19924;-90
2022/03/25 08:05:35;;;;;;;;;;;8.90;99.90;;;;;;5117860;28;20326;-90
2022/03/25 08:08:03;;;;;;;;;;;6.50;99.90;;;;;;5116123;28;19925;-89
2022/03/25 08:10:32;;;;;;;;;;;9.10;99.90;;;;;;5100350;28;19991;-88
2022/03/25 08:12:59;;;;;;;;;;;9.80;99.90;;;;;;5094495;28;20460;-91
2022/03/25 08:15:27;;;;;;;;;;;6.90;99.90;;;;;;5098043;28;19977;-91
2022/03/25 08:18:01;;;;;;;;;;;9.50;99.90;;;;;;5097728;28;20324;-90
2022/03/25 08:20:29;;;;;;;;;;;9.60;99.90;;;;;;5095672;28;19924;-91
2022/03/25 08:22:58;;;;;;;;;;;8.30;99.90;;;;;;5095694;28;20273;-90
2022/03/25 08:28:10;;;;;;;;;;;10.60;99.90;;;;;;5117515;28;19930;-90
2022/03/25 08:30:37;;;;;;;;;;;10.30;99.90;;;;;;5119372;28;19931;-91
2022/03/25 08:33:04;;;;;;;;;;;10.30;99.90;;;;;;5117866;28;19957;-89
2022/03/25 08:35:31;;;;;;;;;;;10.20;99.90;;;;;;5120610;28;19924;-91
2022/03/25 08:38:00;;;;;;;;;;;9.50;99.90;;;;;;5118784;28;20240;-89
2022/03/25 08:40:30;;;;;;;;;;;10.60;99.90;;;;;;5117936;28;20269;-88
2022/03/25 08:42:57;;;;;;;;;;;10.70;99.90;;;;;;5116606;28;19923;-88
2022/03/25 08:45:24;;;;;;;;;;;10.50;99.90;;;;;;5116800;28;19924;-88
2022/03/25 08:47:58;;;;;;;;;;;10.60;99.90;;;;;;5114802;28;19969;-91
2022/03/25 08:50:26;;;;;;;;;;;10.90;99.90;;;;;;5121466;28;20007;-88
2022/03/25 08:52:53;;;;;;;;;;;11.10;99.90;;;;;;5117898;28;19957;-90
2022/03/25 08:55:26;;;;;;;;;;;11.50;99.90;;;;;;5118634;28;19931;-90
2022/03/25 08:57:53;;;;;;;;;;;11.10;99.90;;;;;;5121040;28;19927;-90
2022/03/25 09:00:21;;;;;;;;;;;13.60;99.90;;;;;;5116169;28;19955;-90
2022/03/25 09:02:48;;;;;;;;;;;11.50;99.90;;;;;;5114930;28;19935;-86
2022/03/25 09:05:17;;;;;;;;;;;11.90;99.90;;;;;;5113843;28;20014;-89
2022/03/25 09:07:46;;;;;;;;;;;11.40;99.90;;;;;;5103310;28;19928;-87
2022/03/25 09:10:15;;;;;;;;;;;11.20;99.90;;;;;;5111345;28;20007;-90
2022/03/25 09:12:44;;;;;;;;;;;11.70;99.90;;;;;;5102510;28;20001;-89
2022/03/25 09:15:16;;;;;;;;;;;11.50;99.90;;;;;;5106974;28;19968;-89
2022/03/25 09:17:45;;;;;;;;;;;11.70;99.90;;;;;;5103998;27;19935;-89
2022/03/25 09:20:29;;;;;;;;;;;12.10;99.90;;;;;;5107080;28;19936;-88
2022/03/25 09:22:57;;;;;;;;;;;12.30;99.90;;;;;;5093805;28;20434;-89
2022/03/25 09:25:24;;;;;;;;;;;12.90;99.90;;;;;;5095452;28;20389;-88
2022/03/25 09:27:53;;;;;;;;;;;10.10;99.90;;;;;;5108298;28;19924;-88
2022/03/25 09:30:20;;;;;;;;;;;13.20;99.90;;;;;;5108382;28;20007;-89
2022/03/25 09:32:47;;;;;;;;;;;16.00;99.90;;;;;;5098006;28;19972;-88
2022/03/25 09:35:16;;;;;;;;;;;12.90;99.90;;;;;;5098264;28;19996;-88
2022/03/25 09:37:46;;;;;;;;;;;13.20;99.90;;;;;;5114384;28;19928;-87
2022/03/25 09:40:14;;;;;;;;;;;12.90;99.90;;;;;;5126710;28;19924;-88
2022/03/25 09:42:42;;;;;;;;;;;13.50;99.90;;;;;;5116751;28;19930;-88
2022/03/25 09:45:15;;;;;;;;;;;13.30;99.90;;;;;;5110736;28;19927;-88
2022/03/25 09:47:44;;;;;;;;;;;13.50;99.40;;;;;;5097073;28;19971;-86
2022/03/25 09:50:14;;;;;;;;;;;14.00;98.90;;;;;;5109575;28;19932;-89
2022/03/25 09:52:43;;;;;;;;;;;14.60;98.30;;;;;;5095525;28;19924;-88
2022/03/25 09:55:10;;;;;;;;;;;14.00;98.40;;;;;;5094148;28;19943;-87
2022/03/25 09:57:39;;;;;;;;;;;13.90;97.90;;;;;;5105267;28;19982;-87
2022/03/25 10:00:07;;;;;;;;;;;14.10;97.00;;;;;;5106075;28;19923;-87
2022/03/25 10:02:37;;;;;;;;;;;14.30;96.50;;;;;;5111886;28;20392;-89
2022/03/25 10:05:19;;;;;;;;;;;14.70;95.60;;;;;;5109219;28;19924;-87
2022/03/25 10:07:47;;;;;;;;;;;14.70;94.60;;;;;;5097707;28;19947;-88
2022/03/25 10:10:22;;;;;;;;;;;14.80;94.20;;;;;;5100128;28;19988;-88
2022/03/25 10:12:52;;;;;;;;;;;15.10;93.50;;;;;;5103666;28;19928;-88
2022/03/25 10:15:26;;;;;;;;;;;15.10;94.00;;;;;;5110480;28;19962;-87
2022/03/25 10:17:55;;;;;;;;;;;15.30;92.60;;;;;;5104869;28;20432;-83
2022/03/25 10:20:24;;;;;;;;;;;15.20;90.60;;;;;;5096035;28;19928;-87
2022/03/25 10:23:11;;;;;;;;;;;15.40;91.10;;;;;;5102407;28;19924;-87
2022/03/25 10:25:40;;;;;;;;;;;15.70;90.50;;;;;;5100040;28;19923;-81
2022/03/25 10:28:18;;;;;;;;;;;15.50;90.00;;;;;;5105861;28;19932;-85
2022/03/25 10:30:47;;;;;;;;;;;15.40;89.60;;;;;;5099200;28;20297;-87
2022/03/25 10:33:22;;;;;;;;;;;15.30;90.30;;;;;;5100291;28;19923;-87
2022/03/25 10:35:53;;;;;;;;;;;15.40;91.10;;;;;;5110649;28;19928;-85
2022/03/25 10:38:22;;;;;;;;;;;15.50;90.10;;;;;;5111114;28;20014;-87
2022/03/25 10:40:49;;;;;;;;;;;16.00;90.30;;;;;;5100635;28;19924;-86
2022/03/25 10:43:16;;;;;;;;;;;15.40;88.00;;;;;;5098127;28;19924;-86
2022/03/25 10:45:43;;;;;;;;;;;15.50;87.70;;;;;;5104499;28;20010;-86
2022/03/25 10:48:18;;;;;;;;;;;15.50;88.60;;;;;;5106663;28;20374;-86
2022/03/25 10:50:55;;;;;;;;;;;15.40;85.60;;;;;;5089487;28;19931;-86
2022/03/25 10:53:24;;;;;;;;;;;16.10;86.20;;;;;;5107792;28;20404;-87
2022/03/25 10:55:58;;;;;;;;;;;15.70;87.50;;;;;;5107020;28;20370;-86
2022/03/25 10:58:27;;;;;;;;;;;16.60;85.50;;;;;;5108281;28;19946;-86
2022/03/25 11:00:56;;;;;;;;;;;16.00;88.60;;;;;;5114309;28;19969;-88
2022/03/25 11:03:25;;;;;;;;;;;18.00;87.40;;;;;;5106212;28;20419;-86
2022/03/25 11:05:52;;;;;;;;;;;16.40;86.70;;;;;;5104751;28;20724;-87
2022/03/25 11:08:20;;;;;;;;;;;16.00;88.80;;;;;;5110157;28;19931;-88
2022/03/25 11:10:47;;;;;;;;;;;16.40;88.20;;;;;;5101205;28;19938;-87
2022/03/25 11:13:13;;;;;;;;;;;16.40;85.50;;;;;;5101948;28;19928;-87
2022/03/25 11:15:40;;;;;;;;;;;16.40;85.60;;;;;;5090840;28;20354;-88
2022/03/25 11:18:07;;;;;;;;;;;16.20;85.00;;;;;;5108761;28;19923;-85
2022/03/25 11:20:36;;;;;;;;;;;16.20;85.30;;;;;;5097173;28;19924;-86
2022/03/25 11:23:06;;;;;;;;;;;16.30;85.20;;;;;;5100990;28;20369;-88
2022/03/25 11:25:36;;;;;;;;;;;16.40;83.90;;;;;;5109272;28;19924;-85
2022/03/25 11:28:07;;;;;;;;;;;18.00;84.50;;;;;;5099550;28;19934;-87
2022/03/25 11:30:35;;;;;;;;;;;16.50;84.50;;;;;;5099683;28;19979;-86
2022/03/25 11:33:11;;;;;;;;;;;16.50;81.00;;;;;;5049258;28;20190;-85
2022/03/25 11:35:40;;;;;;;;;;;17.20;79.40;;;;;;5075419;28;20005;-86
2022/03/25 11:38:18;;;;;;;;;;;17.00;81.40;;;;;;5094741;28;19924;-86
2022/03/25 11:40:45;;;;;;;;;;;16.80;77.30;;;;;;5089380;28;19935;-85
2022/03/25 11:43:13;;;;;;;;;;;16.60;78.40;;;;;;5106253;28;20023;-86
2022/03/25 11:45:41;;;;;;;;;;;17.00;77.20;;;;;;5097608;28;20019;-87
2022/03/25 11:48:26;;;;;;;;;;;17.50;79.20;;;;;;5104277;28;19924;-85
2022/03/25 11:50:56;;;;;;;;;;;17.60;76.00;;;;;;5109005;28;19924;-85
2022/03/25 11:53:29;;;;;;;;;;;17.10;74.70;;;;;;5100869;28;19931;-85
2022/03/25 11:55:59;;;;;;;;;;;16.90;74.60;;;;;;5106235;28;19946;-86
2022/03/25 11:58:26;;;;;;;;;;;17.20;77.20;;;;;;5100003;28;19967;-86
2022/03/25 12:00:58;;;;;;;;;;;16.90;77.40;;;;;;5103377;28;19934;-87
2022/03/25 12:03:41;;;;;;;;;;;16.90;78.60;;;;;;5103660;28;19935;-85
2022/03/25 12:06:12;;;;;;;;;;;16.90;75.60;;;;;;5099370;28;19924;-86
2022/03/25 12:08:39;;;;;;;;;;;17.10;76.80;;;;;;5095533;28;20377;-86
2022/03/25 12:11:11;;;;;;;;;;;17.20;75.90;;;;;;5101477;28;20296;-87
2022/03/25 12:13:56;;;;;;;;;;;17.20;76.20;;;;;;5104639;28;19928;-87
2022/03/25 12:16:41;;;;;;;;;;;17.30;75.50;;;;;;5105603;28;19924;-85
2022/03/25 12:19:26;;;;;;;;;;;17.30;74.80;;;;;;5076379;28;19931;-86
2022/03/25 12:21:56;;;;;;;;;;;17.40;75.20;;;;;;5103919;27;20385;-86
2022/03/25 12:24:25;;;;;;;;;;;17.60;75.70;;;;;;5103238;28;20285;-87
2022/03/25 12:26:58;;;;;;;;;;;17.60;74.60;;;;;;5095893;28;19924;-85
2022/03/25 12:29:30;;;;;;;;;;;17.90;73.80;;;;;;5099954;27;19927;-87
2022/03/25 12:31:58;;;;;;;;;;;17.70;73.20;;;;;;5106678;28;19924;-87
2022/03/25 12:34:29;;;;;;;;;;;17.70;73.10;;;;;;5106111;28;19928;-85
2022/03/25 12:37:06;;;;;;;;;;;18.00;74.00;;;;;;5112710;28;19927;-87
2022/03/25 12:39:36;;;;;;;;;;;17.60;73.50;;;;;;5087710;28;20292;-88
2022/03/25 12:42:11;;;;;;;;;;;17.90;74.80;;;;;;5070810;28;19924;-84
2022/03/25 12:44:38;;;;;;;;;;;16.90;72.80;;;;;;5110033;28;19931;-88
2022/03/25 12:47:06;;;;;;;;;;;17.80;74.10;;;;;;5091014;28;19931;-87
2022/03/25 12:49:33;;;;;;;;;;;17.60;73.90;;;;;;5113963;28;19924;-88
2022/03/25 12:52:05;;;;;;;;;;;17.20;76.70;;;;;;5114953;28;20377;-87
2022/03/25 12:54:32;;;;;;;;;;;19.00;75.30;;;;;;5114807;28;19924;-88
2022/03/25 12:57:00;;;;;;;;;;;17.40;75.50;;;;;;5105703;28;20334;-89
2022/03/25 12:59:29;;;;;;;;;;;18.00;74.30;;;;;;5106287;28;19924;-88
2022/03/25 13:01:56;;;;;;;;;;;18.10;72.80;;;;;;5095786;28;19924;-87
2022/03/25 13:04:33;;;;;;;;;;;17.90;75.00;;;;;;5095565;28;19939;-86
2022/03/25 13:07:09;;;;;;;;;;;18.20;73.50;;;;;;5108179;28;19934;-85
2022/03/25 13:09:36;;;;;;;;;;;18.10;74.20;;;;;;5107970;28;19924;-88
2022/03/25 13:12:03;;;;;;;;;;;18.40;76.40;;;;;;5091955;28;19978;-88
2022/03/25 13:14:30;;;;;;;;;;;18.50;73.80;;;;;;5093432;28;20345;-89
2022/03/25 13:16:59;;;;;;;;;;;18.10;73.50;;;;;;5111313;28;19923;-89
2022/03/25 13:19:31;;;;;;;;;;;18.00;74.40;;;;;;5098332;28;19924;-88
2022/03/25 13:22:14;;;;;;;;;;;18.50;72.40;;;;;;5106488;28;19969;-89
2022/03/25 13:24:55;;;;;;;;;;;18.30;74.90;;;;;;5110653;28;19980;-88
2022/03/25 13:27:31;;;;;;;;;;;18.00;71.20;;;;;;5120201;28;19924;-87
2022/03/25 13:29:58;;;;;;;;;;;17.50;71.20;;;;;;5110007;28;19967;-87
2022/03/25 13:32:29;;;;;;;;;;;18.10;76.70;;;;;;5104275;28;19934;-87
2022/03/25 13:35:06;;;;;;;;;;;18.10;72.00;;;;;;5108869;28;19930;-90
2022/03/25 13:37:36;;;;;;;;;;;18.10;71.70;;;;;;5102203;28;19967;-90
2022/03/25 13:40:18;;;;;;;;;;;18.40;75.90;;;;;;5102599;28;19967;-85
2022/03/25 13:42:57;;;;;;;;;;;18.40;72.10;;;;;;5103885;28;19982;-89
2022/03/25 13:45:25;;;;;;;;;;;18.50;71.70;;;;;;5084911;28;19932;-88
2022/03/25 13:48:01;;;;;;;;;;;18.60;73.80;;;;;;5103738;28;19977;-88
2022/03/25 13:50:28;;;;;;;;;;;18.20;71.30;;;;;;5096220;28;19936;-89
2022/03/25 13:52:59;;;;;;;;;;;18.60;74.00;;;;;;5100826;28;19931;-88
2022/03/25 13:55:37;;;;;;;;;;;19.20;71.30;;;;;;5104853;28;19928;-87
2022/03/25 13:58:34;;;;;;;;;;;18.60;70.90;;;;;;5114006;28;20381;-89
2022/03/25 14:01:09;;;;;;;;;;;20.90;72.30;;;;;;5100400;28;19967;-88
2022/03/25 14:03:47;;;;;;;;;;;19.00;70.00;;;;;;5108408;28;19984;-88
2022/03/25 14:06:35;;;;;;;;;;;18.60;70.40;;;;;;5109223;28;19924;-89
2022/03/25 14:09:14;;;;;;;;;;;18.40;71.50;;;;;;5103765;28;19931;-86
2022/03/25 14:11:50;;;;;;;;;;;19.60;73.60;;;;;;5089979;28;20406;-89
2022/03/25 14:14:32;;;;;;;;;;;18.70;72.00;;;;;;5107082;28;19938;-88
2022/03/25 14:16:59;;;;;;;;;;;18.70;70.20;;;;;;5103451;28;19935;-87
2022/03/25 14:19:27;;;;;;;;;;;18.50;73.20;;;;;;5106484;28;19924;-89
2022/03/25 14:22:19;;;;;;;;;;;19.60;73.10;;;;;;5105732;28;19928;-87
2022/03/25 14:24:52;;;;;;;;;;;18.60;73.00;;;;;;5020206;28;19933;-88
2022/03/25 14:27:23;;;;;;;;;;;18.90;70.80;;;;;;5094185;28;19954;-89
2022/03/25 14:29:52;;;;;;;;;;;18.50;72.40;;;;;;5105794;28;19934;-94
2022/03/25 14:32:19;;;;;;;;;;;18.30;70.10;;;;;;5099481;28;19939;-89
2022/03/25 14:34:52;;;;;;;;;;;18.30;71.40;;;;;;5110537;28;19931;-88
2022/03/25 14:37:27;;;;;;;;;;;18.30;70.60;;;;;;5108656;28;19924;-88